sensor_id;sensor_type;location;lat;lon;timestamp;pressure;altitude;pressure_sealevel;temperature;humidity
64862;BME280;62652;42.274;-71.436;2022-11-18T00:00:00;100570.0;;;3.2222222222222205;69.1
64862;BME280;62652;42.274;-71.436;2022-11-18T00:01:05;100570.0;;;2.999999999999999;68.5
64862;BME280;62652;42.274;-71.436;2022-11-18T00:02:00;100580.0;;;3.111111111111112;67.4
64862;BME280;62652;42.274;-71.436;2022-11-18T00:03:00;100580.0;;;3.111111111111112;67.6
64862;BME280;62652;42.274;-71.436;2022-11-18T00:04:01;100590.0;;;3.111111111111112;67.6
64862;BME280;62652;42.274;-71.436;2022-11-18T00:05:00;100580.0;;;3.111111111111112;64.5
64862;BME280;62652;42.274;-71.436;2022-11-18T00:06:00;100590.0;;;2.999999999999999;65.6
64862;BME280;62652;42.274;-71.436;2022-11-18T00:07:00;100590.0;;;2.8888888888888906;65.7
64862;BME280;62652;42.274;-71.436;2022-11-18T00:08:00;100590.0;;;2.8888888888888906;64.2
64862;BME280;62652;42.274;-71.436;2022-11-18T00:09:00;100590.0;;;2.8888888888888906;63.8
64862;BME280;62652;42.274;-71.436;2022-11-18T00:10:00;100600.0;;;2.8888888888888906;63.5
64862;BME280;62652;42.274;-71.436;2022-11-18T00:11:03;100600.0;;;2.8888888888888906;63.0
64862;BME280;62652;42.274;-71.436;2022-11-18T00:12:00;100590.0;;;2.999999999999999;65.1
64862;BME280;62652;42.274;-71.436;2022-11-18T00:13:00;100610.0;;;2.7777777777777777;63.0
64862;BME280;62652;42.274;-71.436;2022-11-18T00:14:01;100600.0;;;2.7777777777777777;63.1
64862;BME280;62652;42.274;-71.436;2022-11-18T00:15:00;100600.0;;;2.7777777777777777;62.0
64862;BME280;62652;42.274;-71.436;2022-11-18T00:16:01;100600.0;;;2.7777777777777777;61.8
64862;BME280;62652;42.274;-71.436;2022-11-18T00:17:03;100590.0;;;2.7777777777777777;60.2
64862;BME280;62652;42.274;-71.436;2022-11-18T00:18:00;100600.0;;;2.7222222222222214;59.8
64862;BME280;62652;42.274;-71.436;2022-11-18T00:19:00;100600.0;;;2.7222222222222214;61.5
64862;BME280;62652;42.274;-71.436;2022-11-18T00:20:00;100600.0;;;2.7222222222222214;60.3
64862;BME280;62652;42.274;-71.436;2022-11-18T00:21:01;100610.0;;;2.7222222222222214;60.6
64862;BME280;62652;42.274;-71.436;2022-11-18T00:22:01;100610.0;;;2.7222222222222214;59.7
64862;BME280;62652;42.274;-71.436;2022-11-18T00:23:00;100610.0;;;2.7222222222222214;59.2
64862;BME280;62652;42.274;-71.436;2022-11-18T00:24:00;100610.0;;;2.6111111111111125;60.5
64862;BME280;62652;42.274;-71.436;2022-11-18T00:25:00;100620.0;;;2.6111111111111125;57.6
64862;BME280;62652;42.274;-71.436;2022-11-18T00:26:01;100630.0;;;2.6111111111111125;56.7
64862;BME280;62652;42.274;-71.436;2022-11-18T00:27:00;100630.0;;;2.6111111111111125;56.8
64862;BME280;62652;42.274;-71.436;2022-11-18T00:28:00;100640.0;;;2.7222222222222214;56.4
64862;BME280;62652;42.274;-71.436;2022-11-18T00:29:01;100640.0;;;2.7222222222222214;55.0
64862;BME280;62652;42.274;-71.436;2022-11-18T00:30:00;100640.0;;;2.5;56.0
64862;BME280;62652;42.274;-71.436;2022-11-18T00:31:01;100640.0;;;2.5;56.9
64862;BME280;62652;42.274;-71.436;2022-11-18T00:32:00;100650.0;;;2.3888888888888875;57.6
64862;BME280;62652;42.274;-71.436;2022-11-18T00:33:00;100640.0;;;2.5;56.6
64862;BME280;62652;42.274;-71.436;2022-11-18T00:34:00;100650.0;;;2.5;56.3
64862;BME280;62652;42.274;-71.436;2022-11-18T00:35:00;100650.0;;;2.5;55.8
64862;BME280;62652;42.274;-71.436;2022-11-18T00:36:00;100650.0;;;2.6111111111111125;54.9
64862;BME280;62652;42.274;-71.436;2022-11-18T00:37:00;100670.0;;;2.5;55.5
64862;BME280;62652;42.274;-71.436;2022-11-18T00:38:00;100650.0;;;2.5;55.2
64862;BME280;62652;42.274;-71.436;2022-11-18T00:39:00;100650.0;;;2.5;54.4
64862;BME280;62652;42.274;-71.436;2022-11-18T00:40:00;100650.0;;;2.6111111111111125;54.3
64862;BME280;62652;42.274;-71.436;2022-11-18T00:41:01;100660.0;;;2.6111111111111125;54.9
64862;BME280;62652;42.274;-71.436;2022-11-18T00:42:00;100660.0;;;2.5;54.3
64862;BME280;62652;42.274;-71.436;2022-11-18T00:43:00;100660.0;;;2.5;54.7
64862;BME280;62652;42.274;-71.436;2022-11-18T00:44:00;100670.0;;;2.3888888888888875;54.9
64862;BME280;62652;42.274;-71.436;2022-11-18T00:45:00;100660.0;;;2.3888888888888875;54.6
64862;BME280;62652;42.274;-71.436;2022-11-18T00:46:01;100660.0;;;2.2777777777777786;55.1
64862;BME280;62652;42.274;-71.436;2022-11-18T00:47:00;100660.0;;;2.2777777777777786;55.7
64862;BME280;62652;42.274;-71.436;2022-11-18T00:48:00;100660.0;;;2.2777777777777786;55.2
64862;BME280;62652;42.274;-71.436;2022-11-18T00:49:00;100660.0;;;2.2222222222222223;56.3
64862;BME280;62652;42.274;-71.436;2022-11-18T00:50:00;100670.0;;;2.2777777777777786;55.8
64862;BME280;62652;42.274;-71.436;2022-11-18T00:51:06;100660.0;;;2.2777777777777786;55.9
64862;BME280;62652;42.274;-71.436;2022-11-18T00:52:00;100660.0;;;2.2777777777777786;55.6
64862;BME280;62652;42.274;-71.436;2022-11-18T00:53:00;100660.0;;;2.2222222222222223;56.5
64862;BME280;62652;42.274;-71.436;2022-11-18T00:54:01;100660.0;;;2.1111111111111094;57.5
64862;BME280;62652;42.274;-71.436;2022-11-18T00:55:00;100660.0;;;2.2777777777777786;55.8
64862;BME280;62652;42.274;-71.436;2022-11-18T00:56:00;100660.0;;;2.2777777777777786;55.9
64862;BME280;62652;42.274;-71.436;2022-11-18T00:57:00;100670.0;;;2.2777777777777786;55.3
64862;BME280;62652;42.274;-71.436;2022-11-18T00:58:00;100670.0;;;2.2222222222222223;56.2
64862;BME280;62652;42.274;-71.436;2022-11-18T00:59:00;100670.0;;;2.1111111111111094;56.4
64862;BME280;62652;42.274;-71.436;2022-11-18T01:00:00;100670.0;;;2.1111111111111094;56.8
64862;BME280;62652;42.274;-71.436;2022-11-18T01:01:01;100670.0;;;2.000000000000001;57.1
64862;BME280;62652;42.274;-71.436;2022-11-18T01:02:00;100670.0;;;2.2222222222222223;56.5
64862;BME280;62652;42.274;-71.436;2022-11-18T01:03:00;100670.0;;;2.2222222222222223;56.1
64862;BME280;62652;42.274;-71.436;2022-11-18T01:04:01;100670.0;;;2.2222222222222223;56.5
64862;BME280;62652;42.274;-71.436;2022-11-18T01:05:00;100670.0;;;2.2222222222222223;56.5
64862;BME280;62652;42.274;-71.436;2022-11-18T01:06:00;100670.0;;;2.1111111111111094;57.1
64862;BME280;62652;42.274;-71.436;2022-11-18T01:07:00;100670.0;;;2.1111111111111094;57.2
64862;BME280;62652;42.274;-71.436;2022-11-18T01:08:00;100670.0;;;2.1111111111111094;56.5
64862;BME280;62652;42.274;-71.436;2022-11-18T01:09:00;100680.0;;;2.000000000000001;57.8
64862;BME280;62652;42.274;-71.436;2022-11-18T01:10:00;100680.0;;;2.000000000000001;57.9
64862;BME280;62652;42.274;-71.436;2022-11-18T01:11:00;100680.0;;;1.7777777777777795;58.7
64862;BME280;62652;42.274;-71.436;2022-11-18T01:12:01;100680.0;;;2.1111111111111094;57.5
64862;BME280;62652;42.274;-71.436;2022-11-18T01:13:00;100680.0;;;2.000000000000001;57.5
64862;BME280;62652;42.274;-71.436;2022-11-18T01:14:00;100690.0;;;2.000000000000001;57.7
64862;BME280;62652;42.274;-71.436;2022-11-18T01:15:00;100690.0;;;2.000000000000001;57.9
64862;BME280;62652;42.274;-71.436;2022-11-18T01:16:00;100690.0;;;2.000000000000001;57.9
64862;BME280;62652;42.274;-71.436;2022-11-18T01:17:00;100690.0;;;2.000000000000001;57.7
64862;BME280;62652;42.274;-71.436;2022-11-18T01:18:00;100690.0;;;2.000000000000001;57.9
64862;BME280;62652;42.274;-71.436;2022-11-18T01:19:00;100680.0;;;2.1111111111111094;57.2
64862;BME280;62652;42.274;-71.436;2022-11-18T01:20:00;100690.0;;;2.000000000000001;57.4
64862;BME280;62652;42.274;-71.436;2022-11-18T01:21:02;100690.0;;;2.000000000000001;58.5
64862;BME280;62652;42.274;-71.436;2022-11-18T01:22:01;100690.0;;;2.000000000000001;58.3
64862;BME280;62652;42.274;-71.436;2022-11-18T01:23:01;100690.0;;;1.7777777777777795;59.1
64862;BME280;62652;42.274;-71.436;2022-11-18T01:24:00;100690.0;;;1.722222222222223;60.4
64862;BME280;62652;42.274;-71.436;2022-11-18T01:25:00;100690.0;;;1.722222222222223;59.8
64862;BME280;62652;42.274;-71.436;2022-11-18T01:26:03;100690.0;;;1.8888888888888882;57.9
64862;BME280;62652;42.274;-71.436;2022-11-18T01:27:00;100690.0;;;1.8888888888888882;58.2
64862;BME280;62652;42.274;-71.436;2022-11-18T01:28:00;100690.0;;;1.8888888888888882;58.0
64862;BME280;62652;42.274;-71.436;2022-11-18T01:29:00;100690.0;;;1.7777777777777795;60.7
64862;BME280;62652;42.274;-71.436;2022-11-18T01:30:00;100690.0;;;1.8888888888888882;59.0
64862;BME280;62652;42.274;-71.436;2022-11-18T01:31:03;100690.0;;;1.8888888888888882;59.1
64862;BME280;62652;42.274;-71.436;2022-11-18T01:32:00;100690.0;;;1.7777777777777795;59.2
64862;BME280;62652;42.274;-71.436;2022-11-18T01:33:00;100690.0;;;1.8888888888888882;59.0
64862;BME280;62652;42.274;-71.436;2022-11-18T01:34:00;100680.0;;;1.7777777777777795;59.3
64862;BME280;62652;42.274;-71.436;2022-11-18T01:35:00;100690.0;;;1.8888888888888882;58.7
64862;BME280;62652;42.274;-71.436;2022-11-18T01:36:01;100690.0;;;1.8888888888888882;58.6
64862;BME280;62652;42.274;-71.436;2022-11-18T01:37:00;100690.0;;;1.7777777777777795;58.9
64862;BME280;62652;42.274;-71.436;2022-11-18T01:38:00;100690.0;;;1.7777777777777795;59.3
64862;BME280;62652;42.274;-71.436;2022-11-18T01:39:00;100690.0;;;1.8888888888888882;58.8
64862;BME280;62652;42.274;-71.436;2022-11-18T01:40:00;100690.0;;;1.7777777777777795;59.1
64862;BME280;62652;42.274;-71.436;2022-11-18T01:41:00;100690.0;;;1.8888888888888882;59.0
64862;BME280;62652;42.274;-71.436;2022-11-18T01:42:00;100690.0;;;2.000000000000001;57.7
64862;BME280;62652;42.274;-71.436;2022-11-18T01:43:01;100690.0;;;1.8888888888888882;57.8
64862;BME280;62652;42.274;-71.436;2022-11-18T01:44:03;100690.0;;;1.7777777777777795;58.8
64862;BME280;62652;42.274;-71.436;2022-11-18T01:45:06;100690.0;;;1.722222222222223;59.3
64862;BME280;62652;42.274;-71.436;2022-11-18T01:46:00;100700.0;;;1.6111111111111103;59.7
64862;BME280;62652;42.274;-71.436;2022-11-18T01:47:00;100690.0;;;1.6111111111111103;59.8
64862;BME280;62652;42.274;-71.436;2022-11-18T01:48:05;100700.0;;;1.5000000000000016;60.2
64862;BME280;62652;42.274;-71.436;2022-11-18T01:49:03;100700.0;;;1.5000000000000016;60.4
64862;BME280;62652;42.274;-71.436;2022-11-18T01:50:01;100690.0;;;1.3888888888888888;60.7
64862;BME280;62652;42.274;-71.436;2022-11-18T01:51:03;100700.0;;;1.3888888888888888;60.6
64862;BME280;62652;42.274;-71.436;2022-11-18T01:52:00;100700.0;;;1.5000000000000016;60.9
64862;BME280;62652;42.274;-71.436;2022-11-18T01:53:04;100700.0;;;1.5000000000000016;60.4
64862;BME280;62652;42.274;-71.436;2022-11-18T01:54:05;100700.0;;;1.5000000000000016;59.4
64862;BME280;62652;42.274;-71.436;2022-11-18T01:55:06;100700.0;;;1.5000000000000016;59.8
64862;BME280;62652;42.274;-71.436;2022-11-18T01:56:05;100710.0;;;1.6111111111111103;59.9
64862;BME280;62652;42.274;-71.436;2022-11-18T01:57:04;100700.0;;;1.722222222222223;58.9
64862;BME280;62652;42.274;-71.436;2022-11-18T01:58:07;100700.0;;;1.722222222222223;58.6
64862;BME280;62652;42.274;-71.436;2022-11-18T01:59:04;100710.0;;;1.6111111111111103;59.5
64862;BME280;62652;42.274;-71.436;2022-11-18T02:00:04;100700.0;;;1.5000000000000016;59.8
64862;BME280;62652;42.274;-71.436;2022-11-18T02:01:01;100700.0;;;1.5000000000000016;60.2
64862;BME280;62652;42.274;-71.436;2022-11-18T02:02:04;100710.0;;;1.5000000000000016;59.8
64862;BME280;62652;42.274;-71.436;2022-11-18T02:03:01;100710.0;;;1.5000000000000016;60.4
64862;BME280;62652;42.274;-71.436;2022-11-18T02:04:00;100710.0;;;1.2777777777777761;61.4
64862;BME280;62652;42.274;-71.436;2022-11-18T02:05:02;100710.0;;;1.2777777777777761;61.0
64862;BME280;62652;42.274;-71.436;2022-11-18T02:06:01;100710.0;;;1.3888888888888888;60.9
64862;BME280;62652;42.274;-71.436;2022-11-18T02:07:01;100710.0;;;1.5000000000000016;60.4
64862;BME280;62652;42.274;-71.436;2022-11-18T02:08:00;100710.0;;;1.5000000000000016;59.9
64862;BME280;62652;42.274;-71.436;2022-11-18T02:09:00;100710.0;;;1.3888888888888888;61.0
64862;BME280;62652;42.274;-71.436;2022-11-18T02:10:04;100710.0;;;1.3888888888888888;60.7
64862;BME280;62652;42.274;-71.436;2022-11-18T02:11:00;100710.0;;;1.3888888888888888;61.6
64862;BME280;62652;42.274;-71.436;2022-11-18T02:12:00;100710.0;;;1.2777777777777761;62.1
64862;BME280;62652;42.274;-71.436;2022-11-18T02:13:01;100710.0;;;1.2222222222222239;62.4
64862;BME280;62652;42.274;-71.436;2022-11-18T02:14:03;100710.0;;;1.2777777777777761;62.0
64862;BME280;62652;42.274;-71.436;2022-11-18T02:15:01;100710.0;;;1.3888888888888888;61.0
64862;BME280;62652;42.274;-71.436;2022-11-18T02:16:06;100710.0;;;1.3888888888888888;61.3
64862;BME280;62652;42.274;-71.436;2022-11-18T02:17:06;100710.0;;;1.2777777777777761;62.0
64862;BME280;62652;42.274;-71.436;2022-11-18T02:18:06;100710.0;;;1.3888888888888888;61.1
64862;BME280;62652;42.274;-71.436;2022-11-18T02:19:04;100710.0;;;1.3888888888888888;61.0
64862;BME280;62652;42.274;-71.436;2022-11-18T02:21:08;100720.0;;;1.2222222222222239;62.5
64862;BME280;62652;42.274;-71.436;2022-11-18T02:22:11;100720.0;;;1.2222222222222239;61.9
64862;BME280;62652;42.274;-71.436;2022-11-18T02:24:19;100720.0;;;1.2222222222222239;62.4
64862;BME280;62652;42.274;-71.436;2022-11-18T02:25:05;100730.0;;;1.2777777777777761;61.5
64862;BME280;62652;42.274;-71.436;2022-11-18T02:26:19;100720.0;;;1.2777777777777761;61.5
64862;BME280;62652;42.274;-71.436;2022-11-18T02:28:15;100720.0;;;1.1111111111111112;62.6
64862;BME280;62652;42.274;-71.436;2022-11-18T02:29:03;100720.0;;;1.1111111111111112;63.3
64862;BME280;62652;42.274;-71.436;2022-11-18T02:30:04;100720.0;;;1.1111111111111112;63.1
64862;BME280;62652;42.274;-71.436;2022-11-18T02:31:05;100720.0;;;1.1111111111111112;62.5
64862;BME280;62652;42.274;-71.436;2022-11-18T02:32:04;100720.0;;;1.1111111111111112;62.8
64862;BME280;62652;42.274;-71.436;2022-11-18T02:33:05;100730.0;;;1.1111111111111112;63.2
64862;BME280;62652;42.274;-71.436;2022-11-18T02:34:05;100730.0;;;1.1111111111111112;62.1
64862;BME280;62652;42.274;-71.436;2022-11-18T02:35:07;100740.0;;;1.2222222222222239;61.9
64862;BME280;62652;42.274;-71.436;2022-11-18T02:36:06;100740.0;;;1.2222222222222239;61.9
64862;BME280;62652;42.274;-71.436;2022-11-18T02:37:05;100740.0;;;1.2222222222222239;61.6
64862;BME280;62652;42.274;-71.436;2022-11-18T02:38:04;100740.0;;;1.2777777777777761;61.6
64862;BME280;62652;42.274;-71.436;2022-11-18T02:39:06;100740.0;;;1.2222222222222239;61.3
64862;BME280;62652;42.274;-71.436;2022-11-18T02:40:05;100740.0;;;1.2222222222222239;61.6
64862;BME280;62652;42.274;-71.436;2022-11-18T02:41:04;100740.0;;;1.2222222222222239;61.5
64862;BME280;62652;42.274;-71.436;2022-11-18T02:42:05;100740.0;;;1.2777777777777761;61.5
64862;BME280;62652;42.274;-71.436;2022-11-18T02:43:04;100740.0;;;1.2777777777777761;61.5
64862;BME280;62652;42.274;-71.436;2022-11-18T02:44:03;100740.0;;;1.2222222222222239;62.3
64862;BME280;62652;42.274;-71.436;2022-11-18T02:45:04;100730.0;;;1.1111111111111112;62.7
64862;BME280;62652;42.274;-71.436;2022-11-18T02:46:04;100740.0;;;1.1111111111111112;62.6
64862;BME280;62652;42.274;-71.436;2022-11-18T02:47:02;100730.0;;;1.1111111111111112;63.9
64862;BME280;62652;42.274;-71.436;2022-11-18T02:48:02;100730.0;;;0.9999999999999984;64.1
64862;BME280;62652;42.274;-71.436;2022-11-18T02:49:05;100730.0;;;1.1111111111111112;64.0
64862;BME280;62652;42.274;-71.436;2022-11-18T02:50:03;100730.0;;;0.9999999999999984;64.2
64862;BME280;62652;42.274;-71.436;2022-11-18T02:51:03;100730.0;;;0.9999999999999984;64.9
64862;BME280;62652;42.274;-71.436;2022-11-18T02:52:01;100730.0;;;1.1111111111111112;64.8
64862;BME280;62652;42.274;-71.436;2022-11-18T02:53:03;100730.0;;;1.1111111111111112;64.9
64862;BME280;62652;42.274;-71.436;2022-11-18T02:54:04;100730.0;;;1.1111111111111112;66.2
64862;BME280;62652;42.274;-71.436;2022-11-18T02:55:02;100730.0;;;0.9999999999999984;65.5
64862;BME280;62652;42.274;-71.436;2022-11-18T02:56:01;100730.0;;;1.1111111111111112;63.9
64862;BME280;62652;42.274;-71.436;2022-11-18T02:57:01;100730.0;;;1.2222222222222239;62.6
64862;BME280;62652;42.274;-71.436;2022-11-18T02:58:01;100740.0;;;1.2222222222222239;62.7
64862;BME280;62652;42.274;-71.436;2022-11-18T02:59:01;100740.0;;;1.5000000000000016;60.4
64862;BME280;62652;42.274;-71.436;2022-11-18T03:00:00;100740.0;;;1.5000000000000016;60.7
64862;BME280;62652;42.274;-71.436;2022-11-18T03:01:00;100730.0;;;1.6111111111111103;60.6
64862;BME280;62652;42.274;-71.436;2022-11-18T03:02:00;100730.0;;;1.5000000000000016;60.7
64862;BME280;62652;42.274;-71.436;2022-11-18T03:03:20;100730.0;;;1.5000000000000016;61.1
64862;BME280;62652;42.274;-71.436;2022-11-18T03:04:00;100730.0;;;1.5000000000000016;61.4
64862;BME280;62652;42.274;-71.436;2022-11-18T03:05:00;100730.0;;;1.3888888888888888;61.5
64862;BME280;62652;42.274;-71.436;2022-11-18T03:06:07;100740.0;;;1.3888888888888888;61.2
64862;BME280;62652;42.274;-71.436;2022-11-18T03:07:07;100730.0;;;1.5000000000000016;62.2
64862;BME280;62652;42.274;-71.436;2022-11-18T03:08:06;100740.0;;;1.5000000000000016;62.1
64862;BME280;62652;42.274;-71.436;2022-11-18T03:09:07;100740.0;;;1.6111111111111103;61.4
64862;BME280;62652;42.274;-71.436;2022-11-18T03:10:01;100740.0;;;1.6111111111111103;61.8
64862;BME280;62652;42.274;-71.436;2022-11-18T03:11:07;100730.0;;;1.6111111111111103;60.7
64862;BME280;62652;42.274;-71.436;2022-11-18T03:12:11;100730.0;;;1.5000000000000016;60.6
64862;BME280;62652;42.274;-71.436;2022-11-18T03:13:06;100730.0;;;1.5000000000000016;61.8
64862;BME280;62652;42.274;-71.436;2022-11-18T03:14:08;100740.0;;;1.6111111111111103;61.3
64862;BME280;62652;42.274;-71.436;2022-11-18T03:15:06;100730.0;;;1.5000000000000016;62.4
64862;BME280;62652;42.274;-71.436;2022-11-18T03:16:04;100740.0;;;1.5000000000000016;62.7
64862;BME280;62652;42.274;-71.436;2022-11-18T03:17:02;100740.0;;;1.6111111111111103;61.3
64862;BME280;62652;42.274;-71.436;2022-11-18T03:18:09;100740.0;;;1.5000000000000016;61.6
64862;BME280;62652;42.274;-71.436;2022-11-18T03:19:06;100750.0;;;1.5000000000000016;62.1
64862;BME280;62652;42.274;-71.436;2022-11-18T03:20:09;100750.0;;;1.5000000000000016;61.7
64862;BME280;62652;42.274;-71.436;2022-11-18T03:21:07;100750.0;;;1.5000000000000016;62.1
64862;BME280;62652;42.274;-71.436;2022-11-18T03:22:09;100750.0;;;1.5000000000000016;61.6
64862;BME280;62652;42.274;-71.436;2022-11-18T03:23:06;100750.0;;;1.5000000000000016;61.2
64862;BME280;62652;42.274;-71.436;2022-11-18T03:24:08;100750.0;;;1.5000000000000016;61.8
64862;BME280;62652;42.274;-71.436;2022-11-18T03:25:04;100750.0;;;1.5000000000000016;60.9
64862;BME280;62652;42.274;-71.436;2022-11-18T03:26:03;100750.0;;;1.3888888888888888;61.2
64862;BME280;62652;42.274;-71.436;2022-11-18T03:27:05;100750.0;;;1.2777777777777761;62.2
64862;BME280;62652;42.274;-71.436;2022-11-18T03:28:07;100760.0;;;1.2777777777777761;61.4
64862;BME280;62652;42.274;-71.436;2022-11-18T03:29:03;100760.0;;;1.2777777777777761;62.2
64862;BME280;62652;42.274;-71.436;2022-11-18T03:30:05;100760.0;;;1.2777777777777761;62.0
64862;BME280;62652;42.274;-71.436;2022-11-18T03:31:05;100770.0;;;1.2777777777777761;62.7
64862;BME280;62652;42.274;-71.436;2022-11-18T03:32:03;100770.0;;;1.2222222222222239;62.9
64862;BME280;62652;42.274;-71.436;2022-11-18T03:33:05;100770.0;;;1.2777777777777761;63.2
64862;BME280;62652;42.274;-71.436;2022-11-18T03:34:04;100770.0;;;1.2222222222222239;63.2
64862;BME280;62652;42.274;-71.436;2022-11-18T03:35:04;100770.0;;;1.2777777777777761;61.2
64862;BME280;62652;42.274;-71.436;2022-11-18T03:36:03;100760.0;;;1.3888888888888888;61.2
64862;BME280;62652;42.274;-71.436;2022-11-18T03:37:02;100770.0;;;1.3888888888888888;61.4
64862;BME280;62652;42.274;-71.436;2022-11-18T03:38:05;100770.0;;;1.2777777777777761;61.6
64862;BME280;62652;42.274;-71.436;2022-11-18T03:39:03;100770.0;;;1.2222222222222239;62.1
64862;BME280;62652;42.274;-71.436;2022-11-18T03:40:05;100770.0;;;1.2777777777777761;61.1
64862;BME280;62652;42.274;-71.436;2022-11-18T03:41:04;100770.0;;;1.2777777777777761;62.2
64862;BME280;62652;42.274;-71.436;2022-11-18T03:42:04;100770.0;;;1.2777777777777761;60.9
64862;BME280;62652;42.274;-71.436;2022-11-18T03:43:04;100760.0;;;1.3888888888888888;61.2
64862;BME280;62652;42.274;-71.436;2022-11-18T03:44:03;100760.0;;;1.2777777777777761;61.4
64862;BME280;62652;42.274;-71.436;2022-11-18T03:45:05;100760.0;;;1.2777777777777761;61.4
64862;BME280;62652;42.274;-71.436;2022-11-18T03:46:05;100760.0;;;1.2777777777777761;61.6
64862;BME280;62652;42.274;-71.436;2022-11-18T03:47:05;100760.0;;;1.2777777777777761;61.8
64862;BME280;62652;42.274;-71.436;2022-11-18T03:48:06;100770.0;;;1.2222222222222239;61.4
64862;BME280;62652;42.274;-71.436;2022-11-18T03:49:00;100760.0;;;1.2222222222222239;61.2
64862;BME280;62652;42.274;-71.436;2022-11-18T03:50:05;100770.0;;;1.2222222222222239;61.0
64862;BME280;62652;42.274;-71.436;2022-11-18T03:51:05;100770.0;;;1.2777777777777761;60.9
64862;BME280;62652;42.274;-71.436;2022-11-18T03:52:04;100770.0;;;1.2777777777777761;60.8
64862;BME280;62652;42.274;-71.436;2022-11-18T03:53:02;100770.0;;;1.2777777777777761;61.3
64862;BME280;62652;42.274;-71.436;2022-11-18T03:54:05;100770.0;;;1.2777777777777761;61.1
64862;BME280;62652;42.274;-71.436;2022-11-18T03:55:05;100770.0;;;1.2222222222222239;61.3
64862;BME280;62652;42.274;-71.436;2022-11-18T03:56:05;100770.0;;;1.1111111111111112;61.2
64862;BME280;62652;42.274;-71.436;2022-11-18T03:57:05;100770.0;;;1.1111111111111112;61.6
64862;BME280;62652;42.274;-71.436;2022-11-18T03:58:06;100770.0;;;1.1111111111111112;61.8
64862;BME280;62652;42.274;-71.436;2022-11-18T03:59:09;100770.0;;;1.2222222222222239;61.1
64862;BME280;62652;42.274;-71.436;2022-11-18T04:00:05;100770.0;;;1.2222222222222239;60.6
64862;BME280;62652;42.274;-71.436;2022-11-18T04:01:04;100770.0;;;1.2777777777777761;60.5
64862;BME280;62652;42.274;-71.436;2022-11-18T04:02:04;100770.0;;;1.2777777777777761;60.0
64862;BME280;62652;42.274;-71.436;2022-11-18T04:03:00;100780.0;;;1.2222222222222239;61.2
64862;BME280;62652;42.274;-71.436;2022-11-18T04:04:01;100770.0;;;1.2222222222222239;61.1
64862;BME280;62652;42.274;-71.436;2022-11-18T04:05:03;100780.0;;;1.2222222222222239;61.1
64862;BME280;62652;42.274;-71.436;2022-11-18T04:06:03;100780.0;;;1.2222222222222239;60.7
64862;BME280;62652;42.274;-71.436;2022-11-18T04:07:04;100780.0;;;1.2222222222222239;61.1
64862;BME280;62652;42.274;-71.436;2022-11-18T04:08:03;100780.0;;;1.1111111111111112;61.3
64862;BME280;62652;42.274;-71.436;2022-11-18T04:09:07;100780.0;;;1.2222222222222239;60.2
64862;BME280;62652;42.274;-71.436;2022-11-18T04:10:06;100770.0;;;1.2222222222222239;60.3
64862;BME280;62652;42.274;-71.436;2022-11-18T04:11:05;100770.0;;;1.2222222222222239;59.7
64862;BME280;62652;42.274;-71.436;2022-11-18T04:12:03;100770.0;;;1.2222222222222239;60.3
64862;BME280;62652;42.274;-71.436;2022-11-18T04:13:03;100770.0;;;1.1111111111111112;60.5
64862;BME280;62652;42.274;-71.436;2022-11-18T04:14:01;100770.0;;;1.1111111111111112;60.7
64862;BME280;62652;42.274;-71.436;2022-11-18T04:15:00;100770.0;;;1.1111111111111112;60.6
64862;BME280;62652;42.274;-71.436;2022-11-18T04:16:00;100760.0;;;1.2222222222222239;60.5
64862;BME280;62652;42.274;-71.436;2022-11-18T04:17:05;100770.0;;;1.2222222222222239;60.5
64862;BME280;62652;42.274;-71.436;2022-11-18T04:18:00;100770.0;;;1.2222222222222239;59.9
64862;BME280;62652;42.274;-71.436;2022-11-18T04:19:00;100770.0;;;1.1111111111111112;60.3
64862;BME280;62652;42.274;-71.436;2022-11-18T04:20:00;100770.0;;;0.9999999999999984;60.3
64862;BME280;62652;42.274;-71.436;2022-11-18T04:21:00;100770.0;;;0.8888888888888897;61.3
64862;BME280;62652;42.274;-71.436;2022-11-18T04:22:00;100770.0;;;0.9999999999999984;61.1
64862;BME280;62652;42.274;-71.436;2022-11-18T04:23:00;100770.0;;;1.1111111111111112;60.4
64862;BME280;62652;42.274;-71.436;2022-11-18T04:24:00;100770.0;;;1.1111111111111112;60.5
64862;BME280;62652;42.274;-71.436;2022-11-18T04:25:00;100770.0;;;0.9999999999999984;60.6
64862;BME280;62652;42.274;-71.436;2022-11-18T04:26:00;100780.0;;;0.9999999999999984;60.7
64862;BME280;62652;42.274;-71.436;2022-11-18T04:27:00;100780.0;;;0.9999999999999984;60.8
64862;BME280;62652;42.274;-71.436;2022-11-18T04:28:01;100780.0;;;0.9999999999999984;60.8
64862;BME280;62652;42.274;-71.436;2022-11-18T04:29:00;100780.0;;;0.8888888888888897;60.8
64862;BME280;62652;42.274;-71.436;2022-11-18T04:30:01;100780.0;;;0.8888888888888897;61.1
64862;BME280;62652;42.274;-71.436;2022-11-18T04:31:00;100780.0;;;0.8888888888888897;61.2
64862;BME280;62652;42.274;-71.436;2022-11-18T04:32:01;100780.0;;;0.8888888888888897;61.6